Time;durP1;ratioP1;P1;durP2;ratioP2;P2;SDS_P1;SDS_P2;PMS_P1;PMS_P2;Temp;Humidity;BMP_temperature;BMP_pressure;BME280_temperature;BME280_humidity;BME280_pressure;Samples;Min_cycle;Max_cycle;Signal;HPM_P1;HPM_P2
2021/09/06 00:00:06;;;;;;;8.68;5.07;;;;;;;;;;5074587;28;20037;-86
2021/09/06 00:02:32;;;;;;;7.18;4.72;;;;;;;;;;5092157;28;20086;-86
2021/09/06 00:04:58;;;;;;;6.68;4.75;;;;;;;;;;5092537;28;20730;-86
2021/09/06 00:07:24;;;;;;;6.28;4.57;;;;;;;;;;5074020;28;20027;-86
2021/09/06 00:09:53;;;;;;;7.38;5.03;;;;;;;;;;5091911;28;20099;-86
2021/09/06 00:12:19;;;;;;;6.20;5.05;;;;;;;;;;5093205;28;20032;-86
2021/09/06 00:14:45;;;;;;;8.48;5.22;;;;;;;;;;5076558;28;20028;-86
2021/09/06 00:17:11;;;;;;;9.07;5.47;;;;;;;;;;5042428;28;20405;-85
2021/09/06 00:19:37;;;;;;;9.32;5.00;;;;;;;;;;5075154;28;20025;-86
2021/09/06 00:22:03;;;;;;;8.00;4.85;;;;;;;;;;5058662;28;20037;-86
2021/09/06 00:24:29;;;;;;;6.63;5.28;;;;;;;;;;5076260;28;20028;-85
2021/09/06 00:26:55;;;;;;;7.13;4.88;;;;;;;;;;5058144;28;20520;-86
2021/09/06 00:29:21;;;;;;;7.43;5.20;;;;;;;;;;5042855;28;20031;-86
2021/09/06 00:31:47;;;;;;;5.72;4.25;;;;;;;;;;5060013;28;20036;-86
2021/09/06 00:34:13;;;;;;;7.40;4.95;;;;;;;;;;5082688;28;20048;-86
2021/09/06 00:36:39;;;;;;;8.20;4.65;;;;;;;;;;5078002;28;20035;-86
2021/09/06 00:39:05;;;;;;;8.52;5.00;;;;;;;;;;5077836;28;20476;-86
2021/09/06 00:41:31;;;;;;;7.85;5.40;;;;;;;;;;5097949;28;20052;-85
2021/09/06 00:43:57;;;;;;;10.02;5.10;;;;;;;;;;5081741;28;20454;-85
2021/09/06 00:46:23;;;;;;;7.55;5.15;;;;;;;;;;5065656;28;20036;-86
2021/09/06 00:48:50;;;;;;;8.02;5.82;;;;;;;;;;5048225;28;20078;-86
2021/09/06 00:51:16;;;;;;;9.20;4.97;;;;;;;;;;5062414;28;20436;-86
2021/09/06 00:53:42;;;;;;;7.53;5.55;;;;;;;;;;5067804;28;20044;-86
2021/09/06 00:56:09;;;;;;;8.35;5.05;;;;;;;;;;5059911;28;20048;-86
2021/09/06 00:58:37;;;;;;;5.97;5.05;;;;;;;;;;5077614;28;20477;-85
2021/09/06 01:01:03;;;;;;;7.43;5.22;;;;;;;;;;5058498;28;20039;-86
2021/09/06 01:03:29;;;;;;;7.03;5.30;;;;;;;;;;5076859;28;20071;-86
2021/09/06 01:05:55;;;;;;;9.25;5.63;;;;;;;;;;5085347;28;20400;-86
2021/09/06 01:08:21;;;;;;;9.40;5.50;;;;;;;;;;5077618;28;20043;-86
2021/09/06 01:10:47;;;;;;;8.10;5.55;;;;;;;;;;5076894;28;20081;-86
2021/09/06 01:13:13;;;;;;;7.68;5.22;;;;;;;;;;5065244;28;20032;-85
2021/09/06 01:15:39;;;;;;;6.88;5.25;;;;;;;;;;5056309;28;20591;-85
2021/09/06 01:18:05;;;;;;;8.23;5.38;;;;;;;;;;5094926;28;20032;-85
2021/09/06 01:20:31;;;;;;;10.38;5.75;;;;;;;;;;5076392;28;20520;-85
2021/09/06 01:22:57;;;;;;;7.05;5.30;;;;;;;;;;5075972;28;20519;-86
2021/09/06 01:25:23;;;;;;;7.82;5.68;;;;;;;;;;5077049;28;20028;-86
2021/09/06 01:27:49;;;;;;;6.60;5.18;;;;;;;;;;5076224;28;20129;-85
2021/09/06 01:30:15;;;;;;;7.13;5.50;;;;;;;;;;5094242;28;20220;-85
2021/09/06 01:32:41;;;;;;;6.55;5.43;;;;;;;;;;5095307;28;20108;-86
2021/09/06 01:35:08;;;;;;;6.40;4.95;;;;;;;;;;5077649;28;20028;-85
2021/09/06 01:37:34;;;;;;;8.63;5.22;;;;;;;;;;5096073;28;20056;-86
2021/09/06 01:40:00;;;;;;;8.50;5.28;;;;;;;;;;5079021;28;20024;-86
2021/09/06 01:42:26;;;;;;;7.03;4.88;;;;;;;;;;5093468;28;20072;-85
2021/09/06 01:44:52;;;;;;;7.30;5.30;;;;;;;;;;5083440;28;20088;-86
2021/09/06 01:47:18;;;;;;;7.93;4.97;;;;;;;;;;5071856;28;20021;-86
2021/09/06 01:49:44;;;;;;;6.82;5.00;;;;;;;;;;5088000;28;20061;-85
2021/09/06 01:52:10;;;;;;;7.82;5.57;;;;;;;;;;5095069;28;20032;-85
2021/09/06 01:54:36;;;;;;;9.23;5.97;;;;;;;;;;5079807;28;20028;-85
2021/09/06 01:57:02;;;;;;;7.20;5.22;;;;;;;;;;5057351;28;20462;-85
2021/09/06 01:59:28;;;;;;;7.32;5.78;;;;;;;;;;5075346;28;20378;-85
2021/09/06 02:01:54;;;;;;;7.13;5.25;;;;;;;;;;5057989;28;20058;-86
2021/09/06 02:04:20;;;;;;;8.60;6.00;;;;;;;;;;5041183;28;20032;-86
2021/09/06 02:06:46;;;;;;;6.90;4.80;;;;;;;;;;5076762;28;20401;-86
2021/09/06 02:09:12;;;;;;;6.85;5.13;;;;;;;;;;5077028;28;20106;-86
2021/09/06 02:11:38;;;;;;;9.05;5.28;;;;;;;;;;5078725;28;20035;-86
2021/09/06 02:14:04;;;;;;;7.60;5.47;;;;;;;;;;5096087;28;20123;-86
2021/09/06 02:16:30;;;;;;;12.65;5.75;;;;;;;;;;5111564;28;20085;-86
2021/09/06 02:18:56;;;;;;;8.23;5.78;;;;;;;;;;5093021;28;20062;-86
2021/09/06 02:21:22;;;;;;;7.90;5.65;;;;;;;;;;5093211;28;20025;-86
2021/09/06 02:23:48;;;;;;;7.60;5.30;;;;;;;;;;5072661;28;20692;-85
2021/09/06 02:26:14;;;;;;;10.73;6.07;;;;;;;;;;5072608;28;20119;-86
2021/09/06 02:28:40;;;;;;;8.90;6.10;;;;;;;;;;5072342;28;20126;-86
2021/09/06 02:31:06;;;;;;;9.38;6.45;;;;;;;;;;5072586;28;20033;-86
2021/09/06 02:33:33;;;;;;;7.50;6.15;;;;;;;;;;5072842;28;20027;-86
2021/09/06 02:35:59;;;;;;;8.52;6.47;;;;;;;;;;5053940;28;20024;-86
2021/09/06 02:38:25;;;;;;;9.95;6.00;;;;;;;;;;5054581;28;20025;-86
2021/09/06 02:40:51;;;;;;;10.52;6.03;;;;;;;;;;5077176;28;20022;-86
2021/09/06 02:43:17;;;;;;;10.18;6.15;;;;;;;;;;5080732;28;20028;-86
2021/09/06 02:45:43;;;;;;;8.10;6.28;;;;;;;;;;5072170;28;20051;-86
2021/09/06 02:48:09;;;;;;;7.35;5.68;;;;;;;;;;5057087;28;20032;-86
2021/09/06 02:50:35;;;;;;;7.97;6.10;;;;;;;;;;5074229;28;21885;-86
2021/09/06 02:53:01;;;;;;;10.35;5.78;;;;;;;;;;5092345;28;20020;-86
2021/09/06 02:55:27;;;;;;;10.45;6.43;;;;;;;;;;5055921;28;20093;-86
2021/09/06 02:57:53;;;;;;;8.27;5.97;;;;;;;;;;5037590;28;20040;-87
2021/09/06 03:00:20;;;;;;;8.07;5.38;;;;;;;;;;5053756;28;20477;-86
2021/09/06 03:02:46;;;;;;;7.22;5.78;;;;;;;;;;5054088;28;20425;-86
2021/09/06 03:05:12;;;;;;;9.88;6.13;;;;;;;;;;5072502;28;20035;-86
2021/09/06 03:07:38;;;;;;;8.57;5.70;;;;;;;;;;5073031;28;20029;-85
2021/09/06 03:10:05;;;;;;;9.38;6.35;;;;;;;;;;5072507;28;20492;-85
2021/09/06 03:12:31;;;;;;;8.60;6.20;;;;;;;;;;5073533;28;20037;-85
2021/09/06 03:14:57;;;;;;;13.05;7.10;;;;;;;;;;5082171;28;20431;-86
2021/09/06 03:17:23;;;;;;;9.02;6.18;;;;;;;;;;5092689;28;20024;-85
2021/09/06 03:19:49;;;;;;;9.50;6.00;;;;;;;;;;5073642;28;20028;-86
2021/09/06 03:22:16;;;;;;;9.43;6.50;;;;;;;;;;5092316;28;20047;-86
2021/09/06 03:24:42;;;;;;;7.93;6.47;;;;;;;;;;5092498;28;20024;-85
2021/09/06 03:27:08;;;;;;;8.35;6.47;;;;;;;;;;5074907;28;20032;-85
2021/09/06 03:29:34;;;;;;;8.88;6.13;;;;;;;;;;5074911;28;20096;-85
2021/09/06 03:32:00;;;;;;;8.55;5.75;;;;;;;;;;5093998;28;20020;-86
2021/09/06 03:34:26;;;;;;;8.68;6.10;;;;;;;;;;5075874;28;20028;-85
2021/09/06 03:36:52;;;;;;;9.45;5.90;;;;;;;;;;5075271;28;20626;-87
2021/09/06 03:39:19;;;;;;;9.90;5.97;;;;;;;;;;5092516;28;20564;-86
2021/09/06 03:41:46;;;;;;;10.57;6.03;;;;;;;;;;5092973;28;20425;-86
2021/09/06 03:44:12;;;;;;;8.50;6.50;;;;;;;;;;5073705;28;20033;-86
2021/09/06 03:46:38;;;;;;;10.13;6.38;;;;;;;;;;5056970;28;20038;-86
2021/09/06 03:49:05;;;;;;;9.27;6.40;;;;;;;;;;5058873;28;20036;-86
2021/09/06 03:51:31;;;;;;;11.23;6.35;;;;;;;;;;5077153;28;20055;-86
2021/09/06 03:53:57;;;;;;;9.43;6.18;;;;;;;;;;5077506;28;20028;-86
2021/09/06 03:56:23;;;;;;;7.97;6.20;;;;;;;;;;5076892;28;20095;-86
2021/09/06 03:58:49;;;;;;;11.95;6.65;;;;;;;;;;5076504;28;20397;-86
2021/09/06 04:01:15;;;;;;;8.50;6.55;;;;;;;;;;5076127;28;20033;-86
2021/09/06 04:03:41;;;;;;;10.00;6.28;;;;;;;;;;5078188;28;20020;-86
2021/09/06 04:06:07;;;;;;;10.88;6.70;;;;;;;;;;5078881;28;20405;-86
2021/09/06 04:08:33;;;;;;;8.80;6.60;;;;;;;;;;5083924;28;20020;-85
2021/09/06 04:10:59;;;;;;;9.73;6.97;;;;;;;;;;5097928;28;20024;-86
2021/09/06 04:13:25;;;;;;;8.27;6.38;;;;;;;;;;5086966;28;20063;-86
2021/09/06 04:15:51;;;;;;;10.23;7.13;;;;;;;;;;5061561;28;20067;-85
2021/09/06 04:18:17;;;;;;;10.35;6.85;;;;;;;;;;5077995;28;20036;-86
2021/09/06 04:20:43;;;;;;;11.15;6.90;;;;;;;;;;5058599;28;20028;-86
2021/09/06 04:23:09;;;;;;;7.90;6.65;;;;;;;;;;5071530;28;20036;-85
2021/09/06 04:25:35;;;;;;;10.50;7.65;;;;;;;;;;5080510;28;20023;-85
2021/09/06 04:28:01;;;;;;;10.43;7.18;;;;;;;;;;5079203;28;20032;-85
2021/09/06 04:30:27;;;;;;;8.50;6.72;;;;;;;;;;5095512;28;20032;-85
2021/09/06 04:32:53;;;;;;;11.25;6.75;;;;;;;;;;5078289;28;20051;-86
2021/09/06 04:35:19;;;;;;;9.07;7.30;;;;;;;;;;5095430;28;20020;-86
2021/09/06 04:37:45;;;;;;;9.98;7.00;;;;;;;;;;5097203;28;20032;-85
2021/09/06 04:40:12;;;;;;;11.02;8.13;;;;;;;;;;5097357;28;20066;-85
2021/09/06 04:42:38;;;;;;;11.35;6.57;;;;;;;;;;5091870;28;20492;-86
2021/09/06 04:45:10;;;;;;;11.77;6.97;;;;;;;;;;5087381;28;20028;-84
2021/09/06 04:47:36;;;;;;;10.02;6.97;;;;;;;;;;5047243;28;20064;-85
2021/09/06 04:50:03;;;;;;;8.52;6.75;;;;;;;;;;5076353;28;20035;-84
2021/09/06 04:52:29;;;;;;;8.95;7.20;;;;;;;;;;5078265;28;20016;-85
2021/09/06 04:54:55;;;;;;;10.90;6.85;;;;;;;;;;5079713;28;20035;-85
2021/09/06 04:57:21;;;;;;;8.85;6.93;;;;;;;;;;5079855;28;20078;-85
2021/09/06 04:59:47;;;;;;;10.43;7.45;;;;;;;;;;5094456;28;20399;-85
2021/09/06 05:02:13;;;;;;;11.25;7.28;;;;;;;;;;5101064;28;20107;-85
2021/09/06 05:04:39;;;;;;;8.43;6.75;;;;;;;;;;5085251;28;20029;-84
2021/09/06 05:07:05;;;;;;;11.82;6.90;;;;;;;;;;5046021;28;20067;-85
2021/09/06 05:09:31;;;;;;;8.45;6.55;;;;;;;;;;5057684;28;20513;-85
2021/09/06 05:11:57;;;;;;;10.35;6.78;;;;;;;;;;5044701;28;20058;-86
2021/09/06 05:14:23;;;;;;;9.45;6.55;;;;;;;;;;5064284;28;20059;-85
2021/09/06 05:16:48;;;;;;;8.52;7.18;;;;;;;;;;5076673;28;20025;-86
2021/09/06 05:19:14;;;;;;;10.10;6.60;;;;;;;;;;5052118;28;20029;-87
2021/09/06 05:21:40;;;;;;;10.88;7.18;;;;;;;;;;5075766;28;20393;-85
2021/09/06 05:24:06;;;;;;;11.27;6.50;;;;;;;;;;5075906;28;20104;-85
2021/09/06 05:26:33;;;;;;;8.82;6.10;;;;;;;;;;5060616;28;20055;-86
2021/09/06 05:28:59;;;;;;;12.02;7.40;;;;;;;;;;5095459;28;20030;-85
2021/09/06 05:31:25;;;;;;;12.45;8.02;;;;;;;;;;5061894;28;20388;-86
2021/09/06 05:33:51;;;;;;;9.77;6.78;;;;;;;;;;5079984;28;20435;-85
2021/09/06 05:36:17;;;;;;;10.23;6.20;;;;;;;;;;5097141;28;20024;-85
2021/09/06 05:38:44;;;;;;;8.70;5.90;;;;;;;;;;5063268;28;20040;-84
2021/09/06 05:41:10;;;;;;;8.95;7.15;;;;;;;;;;5091864;28;20099;-84
2021/09/06 05:43:36;;;;;;;11.45;6.82;;;;;;;;;;5083365;28;20024;-85
2021/09/06 05:46:02;;;;;;;10.48;7.00;;;;;;;;;;5063703;28;20050;-85
2021/09/06 05:48:28;;;;;;;11.32;6.70;;;;;;;;;;5086012;28;20104;-85
2021/09/06 05:50:55;;;;;;;10.00;6.65;;;;;;;;;;5083811;28;20387;-84
2021/09/06 05:53:21;;;;;;;9.15;5.82;;;;;;;;;;5084689;28;20031;-85
2021/09/06 05:55:47;;;;;;;9.20;6.10;;;;;;;;;;5067631;28;20032;-85
2021/09/06 05:58:13;;;;;;;11.80;6.88;;;;;;;;;;5081106;28;20051;-85
2021/09/06 06:00:39;;;;;;;17.90;7.65;;;;;;;;;;5106328;28;20413;-85
2021/09/06 06:03:05;;;;;;;7.57;5.95;;;;;;;;;;5074135;28;20024;-85
2021/09/06 06:05:31;;;;;;;8.40;6.57;;;;;;;;;;5108795;28;20044;-85
2021/09/06 06:07:57;;;;;;;9.30;6.93;;;;;;;;;;5056437;28;20253;-85
2021/09/06 06:10:23;;;;;;;11.02;6.65;;;;;;;;;;5066096;28;20028;-85
2021/09/06 06:12:49;;;;;;;9.48;6.70;;;;;;;;;;5089894;28;20663;-86
2021/09/06 06:15:15;;;;;;;7.53;6.10;;;;;;;;;;5073820;28;20024;-84
2021/09/06 06:17:43;;;;;;;9.88;6.50;;;;;;;;;;5086204;28;20025;-86
2021/09/06 06:20:09;;;;;;;10.23;6.60;;;;;;;;;;5092717;28;20062;-85
2021/09/06 06:22:35;;;;;;;10.05;6.90;;;;;;;;;;5069278;28;20020;-83
2021/09/06 06:25:01;;;;;;;9.23;6.53;;;;;;;;;;5059427;28;20508;-84
2021/09/06 06:27:27;;;;;;;8.10;6.13;;;;;;;;;;5077720;28;20110;-85
2021/09/06 06:29:53;;;;;;;10.13;6.65;;;;;;;;;;5072770;28;20404;-87
2021/09/06 06:32:19;;;;;;;9.70;6.65;;;;;;;;;;5081033;28;20021;-84
2021/09/06 06:34:45;;;;;;;10.38;6.65;;;;;;;;;;5102338;28;20497;-86
2021/09/06 06:37:11;;;;;;;13.20;7.10;;;;;;;;;;5080520;28;20024;-85
2021/09/06 06:39:37;;;;;;;9.50;6.32;;;;;;;;;;5088783;28;20062;-84
2021/09/06 06:42:03;;;;;;;8.35;6.22;;;;;;;;;;5089509;28;20028;-83
2021/09/06 06:44:29;;;;;;;9.10;5.68;;;;;;;;;;5071742;28;20024;-86
2021/09/06 06:46:55;;;;;;;9.75;6.22;;;;;;;;;;5084361;28;20023;-86
2021/09/06 06:49:21;;;;;;;8.38;6.32;;;;;;;;;;5052720;28;20028;-85
2021/09/06 06:51:47;;;;;;;71.15;9.77;;;;;;;;;;5081134;28;20028;-85
2021/09/06 06:54:13;;;;;;;8.88;6.07;;;;;;;;;;5075533;28;20020;-85
2021/09/06 06:56:39;;;;;;;9.73;6.15;;;;;;;;;;5068475;28;20538;-85
2021/09/06 06:59:05;;;;;;;8.30;5.85;;;;;;;;;;5064401;28;20081;-79
2021/09/06 07:01:31;;;;;;;10.38;5.85;;;;;;;;;;5085994;28;20039;-81
2021/09/06 07:03:57;;;;;;;11.95;6.40;;;;;;;;;;5087914;28;20511;-76
2021/09/06 07:06:25;;;;;;;9.40;6.45;;;;;;;;;;5087985;28;20439;-84
2021/09/06 07:08:51;;;;;;;11.23;6.72;;;;;;;;;;5061451;28;20047;-83
2021/09/06 07:11:17;;;;;;;8.07;5.97;;;;;;;;;;5073364;28;20412;-85
2021/09/06 07:13:43;;;;;;;8.15;5.85;;;;;;;;;;5053008;28;20036;-85
2021/09/06 07:16:09;;;;;;;9.77;6.05;;;;;;;;;;5054126;28;20039;-85
2021/09/06 07:18:35;;;;;;;11.48;6.10;;;;;;;;;;5046479;28;20036;-86
2021/09/06 07:21:01;;;;;;;8.73;5.85;;;;;;;;;;5055002;28;20028;-85
2021/09/06 07:23:27;;;;;;;7.82;5.75;;;;;;;;;;5059251;28;20076;-85
2021/09/06 07:25:53;;;;;;;9.40;5.75;;;;;;;;;;5059395;28;20036;-86
2021/09/06 07:28:19;;;;;;;7.72;5.30;;;;;;;;;;5068080;28;20532;-86
2021/09/06 07:30:46;;;;;;;8.35;5.90;;;;;;;;;;5074183;28;20020;-85
2021/09/06 07:33:12;;;;;;;8.73;5.32;;;;;;;;;;5093475;28;20020;-86
2021/09/06 07:35:38;;;;;;;8.05;5.60;;;;;;;;;;5055607;28;20025;-86
2021/09/06 07:38:04;;;;;;;8.25;4.97;;;;;;;;;;5063269;28;20043;-86
2021/09/06 07:40:29;;;;;;;6.80;5.35;;;;;;;;;;5076238;28;20036;-76
2021/09/06 07:42:55;;;;;;;12.45;5.07;;;;;;;;;;5088363;28;20058;-76
2021/09/06 07:45:22;;;;;;;9.80;4.85;;;;;;;;;;5095526;28;20113;-76
2021/09/06 07:47:48;;;;;;;6.45;5.00;;;;;;;;;;5089526;28;20024;-76
2021/09/06 07:50:16;;;;;;;10.95;4.82;;;;;;;;;;5088075;28;20025;-76
2021/09/06 07:52:42;;;;;;;7.82;4.85;;;;;;;;;;5067658;28;20020;-76
2021/09/06 07:55:08;;;;;;;10.98;5.40;;;;;;;;;;5090022;28;20035;-76
2021/09/06 07:57:34;;;;;;;9.32;4.78;;;;;;;;;;5092057;28;20381;-76
2021/09/06 08:00:00;;;;;;;8.13;5.05;;;;;;;;;;5094628;28;20020;-76
2021/09/06 08:02:26;;;;;;;8.52;5.05;;;;;;;;;;5094804;28;20438;-76
2021/09/06 08:04:52;;;;;;;8.82;4.50;;;;;;;;;;5094584;28;20050;-76
2021/09/06 08:07:19;;;;;;;7.28;4.68;;;;;;;;;;5077038;28;20024;-76
2021/09/06 08:09:45;;;;;;;7.38;4.60;;;;;;;;;;5076510;28;20039;-76
2021/09/06 08:12:11;;;;;;;8.27;4.45;;;;;;;;;;5086997;28;20086;-76
2021/09/06 08:14:38;;;;;;;8.00;4.82;;;;;;;;;;5088692;28;20447;-76
2021/09/06 08:17:04;;;;;;;8.40;5.20;;;;;;;;;;5078482;28;20036;-76
2021/09/06 08:19:30;;;;;;;10.82;5.40;;;;;;;;;;5074136;28;20029;-76
2021/09/06 08:21:56;;;;;;;10.43;4.50;;;;;;;;;;5078254;28;20033;-76
2021/09/06 08:24:23;;;;;;;6.35;4.28;;;;;;;;;;5075698;28;20046;-76
2021/09/06 08:26:50;;;;;;;7.18;4.70;;;;;;;;;;5091578;28;20596;-76
2021/09/06 08:29:16;;;;;;;8.85;4.30;;;;;;;;;;5093900;28;20028;-76
2021/09/06 08:31:42;;;;;;;5.50;4.32;;;;;;;;;;5092035;28;20016;-76
2021/09/06 08:34:08;;;;;;;7.80;4.93;;;;;;;;;;5087128;28;20132;-76
2021/09/06 08:36:34;;;;;;;7.00;4.25;;;;;;;;;;5074151;28;20490;-76
2021/09/06 08:39:00;;;;;;;10.93;4.60;;;;;;;;;;5065998;28;20110;-76
2021/09/06 08:41:26;;;;;;;7.93;4.40;;;;;;;;;;5086664;28;20072;-76
2021/09/06 08:43:52;;;;;;;7.10;4.22;;;;;;;;;;5086046;28;20032;-76
2021/09/06 08:46:22;;;;;;;7.10;4.93;;;;;;;;;;5085652;28;20032;-76
2021/09/06 08:48:48;;;;;;;7.43;4.20;;;;;;;;;;5078595;28;20646;-76
2021/09/06 08:51:14;;;;;;;6.63;4.38;;;;;;;;;;5082263;28;20037;-76
2021/09/06 08:53:40;;;;;;;7.97;4.30;;;;;;;;;;5094270;28;20098;-76
2021/09/06 08:56:06;;;;;;;9.10;5.15;;;;;;;;;;5094243;28;20504;-76
2021/09/06 08:58:32;;;;;;;7.45;3.75;;;;;;;;;;5077704;28;20093;-76
2021/09/06 09:00:58;;;;;;;6.50;4.20;;;;;;;;;;5080311;28;20409;-76
2021/09/06 09:03:25;;;;;;;7.65;4.18;;;;;;;;;;5087689;28;20194;-77
2021/09/06 09:05:57;;;;;;;10.98;4.25;;;;;;;;;;5055638;28;20040;-76
2021/09/06 09:08:24;;;;;;;6.40;4.13;;;;;;;;;;5073691;28;20020;-77
2021/09/06 09:10:50;;;;;;;7.45;4.38;;;;;;;;;;5073284;28;20029;-76
2021/09/06 09:13:17;;;;;;;6.13;4.50;;;;;;;;;;5073681;28;20153;-76
2021/09/06 09:15:52;;;;;;;6.63;4.10;;;;;;;;;;5073609;28;20024;-76
2021/09/06 09:18:29;;;;;;;6.60;3.78;;;;;;;;;;5055720;28;20024;-76
2021/09/06 09:21:06;;;;;;;6.20;4.00;;;;;;;;;;5057068;28;20389;-76
2021/09/06 09:24:01;;;;;;;7.40;4.25;;;;;;;;;;5073639;28;20032;-76
2021/09/06 09:26:28;;;;;;;7.68;4.10;;;;;;;;;;5071517;28;20032;-76
2021/09/06 09:28:54;;;;;;;5.70;4.47;;;;;;;;;;5074539;28;20127;-77
2021/09/06 09:31:21;;;;;;;7.43;3.95;;;;;;;;;;5093516;28;20091;-76
2021/09/06 09:33:48;;;;;;;8.25;3.83;;;;;;;;;;5093531;28;20036;-76
2021/09/06 09:36:25;;;;;;;7.05;4.32;;;;;;;;;;5093015;28;20024;-76
2021/09/06 09:38:51;;;;;;;7.28;3.92;;;;;;;;;;5093029;28;20149;-76
2021/09/06 09:41:17;;;;;;;11.57;4.32;;;;;;;;;;5093093;28;20024;-76
2021/09/06 09:43:43;;;;;;;7.90;4.55;;;;;;;;;;5092950;28;20033;-77
2021/09/06 09:46:10;;;;;;;5.60;4.50;;;;;;;;;;5093370;28;20117;-77
2021/09/06 09:48:36;;;;;;;7.95;4.20;;;;;;;;;;5092819;28;20028;-77
2021/09/06 09:51:02;;;;;;;10.25;4.50;;;;;;;;;;5081009;28;20024;-77
2021/09/06 09:53:28;;;;;;;6.43;4.00;;;;;;;;;;5072824;28;20024;-76
2021/09/06 09:55:55;;;;;;;12.02;4.50;;;;;;;;;;5073040;28;20024;-76
2021/09/06 09:58:21;;;;;;;8.80;5.07;;;;;;;;;;5072671;28;20123;-76
2021/09/06 10:00:47;;;;;;;7.47;3.92;;;;;;;;;;5072143;28;20103;-76
2021/09/06 10:03:16;;;;;;;6.50;4.00;;;;;;;;;;5072646;28;20035;-76
2021/09/06 10:05:43;;;;;;;5.95;4.10;;;;;;;;;;5072227;28;20108;-76
2021/09/06 10:08:17;;;;;;;6.63;4.05;;;;;;;;;;5072428;28;20017;-76
2021/09/06 10:10:43;;;;;;;5.75;4.32;;;;;;;;;;5071802;28;20028;-76
2021/09/06 10:13:12;;;;;;;9.60;4.45;;;;;;;;;;5072497;28;20028;-76
2021/09/06 10:15:38;;;;;;;9.23;4.10;;;;;;;;;;5072410;28;20127;-76
2021/09/06 10:18:20;;;;;;;7.82;4.18;;;;;;;;;;5072276;28;20028;-76
2021/09/06 10:20:48;;;;;;;5.93;4.40;;;;;;;;;;5071544;28;20032;-76
2021/09/06 10:23:14;;;;;;;7.22;4.43;;;;;;;;;;5072464;28;20020;-76
2021/09/06 10:25:41;;;;;;;5.13;4.15;;;;;;;;;;5072745;28;20021;-76
2021/09/06 10:28:08;;;;;;;8.20;4.30;;;;;;;;;;5072027;28;20106;-76
2021/09/06 10:30:34;;;;;;;5.60;4.43;;;;;;;;;;5085907;28;20366;-76
2021/09/06 10:33:01;;;;;;;5.30;4.38;;;;;;;;;;5092395;28;20027;-77
2021/09/06 10:35:27;;;;;;;5.18;4.35;;;;;;;;;;5092159;28;20024;-77
2021/09/06 10:38:12;;;;;;;7.97;4.80;;;;;;;;;;5092358;28;20020;-76
2021/09/06 10:40:39;;;;;;;6.63;4.60;;;;;;;;;;5091620;28;20025;-77
2021/09/06 10:43:14;;;;;;;7.43;4.20;;;;;;;;;;5092322;28;20111;-77
2021/09/06 10:45:42;;;;;;;5.95;4.15;;;;;;;;;;5073950;28;20503;-76
2021/09/06 10:48:08;;;;;;;5.15;4.13;;;;;;;;;;5092053;28;20032;-76
2021/09/06 10:50:37;;;;;;;5.05;4.15;;;;;;;;;;5083152;28;20100;-76
2021/09/06 10:53:03;;;;;;;5.22;4.35;;;;;;;;;;5075479;28;20020;-77
2021/09/06 10:55:29;;;;;;;4.90;4.05;;;;;;;;;;5106442;22;20048;-78
2021/09/06 10:57:55;;;;;;;5.85;4.90;;;;;;;;;;5092942;28;20055;-75
2021/09/06 11:00:22;;;;;;;6.60;4.22;;;;;;;;;;5092944;28;20043;-77
2021/09/06 11:02:50;;;;;;;7.72;4.82;;;;;;;;;;5093604;28;20480;-77
2021/09/06 11:05:23;;;;;;;5.75;4.10;;;;;;;;;;5093747;28;20020;-77
2021/09/06 11:07:50;;;;;;;5.82;4.10;;;;;;;;;;5075284;28;20451;-77
2021/09/06 11:10:19;;;;;;;5.78;3.90;;;;;;;;;;5074822;28;20551;-77
2021/09/06 11:12:53;;;;;;;7.20;4.55;;;;;;;;;;5093618;28;20023;-77
2021/09/06 11:15:26;;;;;;;4.93;3.78;;;;;;;;;;5100680;28;20016;-77
2021/09/06 11:17:59;;;;;;;5.05;3.83;;;;;;;;;;5114098;28;20012;-77
2021/09/06 11:20:26;;;;;;;9.15;4.00;;;;;;;;;;5108529;28;20027;-77
2021/09/06 11:22:52;;;;;;;4.80;3.60;;;;;;;;;;5093026;28;20480;-78
2021/09/06 11:25:25;;;;;;;5.82;3.88;;;;;;;;;;5107999;28;20031;-81
2021/09/06 11:27:51;;;;;;;4.97;3.80;;;;;;;;;;5098801;28;20020;-82
2021/09/06 11:30:22;;;;;;;6.80;4.00;;;;;;;;;;5116699;28;20030;-81
2021/09/06 11:32:49;;;;;;;7.50;3.90;;;;;;;;;;5098367;28;20414;-81
2021/09/06 11:35:15;;;;;;;5.07;3.85;;;;;;;;;;5085346;28;20073;-80
2021/09/06 11:37:41;;;;;;;5.65;3.85;;;;;;;;;;5066673;28;20446;-80
2021/09/06 11:40:08;;;;;;;5.95;3.70;;;;;;;;;;5112265;28;20040;-79
2021/09/06 11:42:34;;;;;;;5.80;3.72;;;;;;;;;;5097149;28;20040;-80
2021/09/06 11:45:01;;;;;;;5.47;3.90;;;;;;;;;;5127592;28;20515;-80
2021/09/06 11:47:29;;;;;;;8.80;3.53;;;;;;;;;;5131450;28;20079;-82
2021/09/06 11:49:55;;;;;;;8.98;4.28;;;;;;;;;;5119921;28;20054;-81
2021/09/06 11:52:28;;;;;;;4.10;3.30;;;;;;;;;;5105200;28;20081;-81
2021/09/06 11:54:54;;;;;;;5.55;4.38;;;;;;;;;;5100972;28;20038;-84
2021/09/06 11:57:24;;;;;;;7.82;4.28;;;;;;;;;;5096951;28;20024;-81
2021/09/06 11:59:54;;;;;;;5.60;3.90;;;;;;;;;;5100786;28;20027;-82
2021/09/06 12:02:21;;;;;;;6.13;4.40;;;;;;;;;;5094510;28;20484;-81
2021/09/06 12:05:06;;;;;;;4.88;4.07;;;;;;;;;;5109473;28;20502;-81
2021/09/06 12:07:44;;;;;;;4.90;4.10;;;;;;;;;;5105127;28;20164;-81
2021/09/06 12:10:10;;;;;;;6.60;4.40;;;17.50;99.90;;;;;;5082790;28;20028;-81
2021/09/06 12:12:36;;;;;;;5.88;4.43;;;;;;;;;;5116577;28;20081;-81
2021/09/06 12:15:05;;;;;;;5.50;3.97;;;;;;;;;;5086569;28;20483;-81
2021/09/06 12:17:35;;;;;;;7.93;4.22;;;;;;;;;;5089560;28;20115;-81
2021/09/06 12:20:07;;;;;;;6.10;4.20;;;;;;;;;;5083198;28;20056;-82
2021/09/06 12:22:34;;;;;;;5.13;3.45;;;;;;;;;;5096046;28;20020;-81
2021/09/06 12:25:07;;;;;;;5.38;3.72;;;;;;;;;;5104454;28;20073;-79
2021/09/06 12:27:34;;;;;;;7.75;4.75;;;;;;;;;;5091840;28;20035;-81
2021/09/06 12:30:01;;;;;;;7.07;4.82;;;;;;;;;;5090394;28;20600;-81
2021/09/06 12:32:27;;;;;;;5.13;3.90;;;;;;;;;;5083956;28;20123;-81
2021/09/06 12:34:54;;;;;;;7.47;4.30;;;;;;;;;;5081575;28;20020;-81
2021/09/06 12:37:22;;;;;;;6.28;4.32;;;;;;;;;;5108672;28;20050;-81
2021/09/06 12:39:48;;;;;;;4.45;3.92;;;;;;;;;;5085842;28;20019;-80
2021/09/06 12:42:13;;;;;;;6.63;4.30;;;31.40;57.70;;;;;;5109064;28;20038;-81
2021/09/06 12:44:39;;;;;;;4.57;4.03;;;33.30;51.90;;;;;;5117308;28;20023;-81
2021/09/06 12:47:06;;;;;;;5.15;4.10;;;33.50;50.10;;;;;;5067892;28;20028;-82
2021/09/06 12:49:32;;;;;;;6.47;4.28;;;;;;;;;;5098548;28;20027;-82
2021/09/06 12:51:59;;;;;;;5.82;3.88;;;;;;;;;;5096663;28;20016;-81
2021/09/06 12:54:26;;;;;;;6.32;3.75;;;;;;;;;;5103632;28;20143;-81
2021/09/06 12:56:53;;;;;;;4.70;3.72;;;;;;;;;;5098625;28;20059;-82
2021/09/06 12:59:19;;;;;;;9.75;4.10;;;;;;;;;;5115925;28;20055;-81
2021/09/06 13:01:47;;;;;;;7.82;4.10;;;;;;;;;;5112369;28;20023;-81
2021/09/06 13:04:13;;;;;;;4.03;3.40;;;;;;;;;;5090984;28;20028;-81
2021/09/06 13:06:39;;;;;;;7.40;4.20;;;;;;;;;;5100575;28;20020;-80
2021/09/06 13:09:05;;;;;;;9.45;3.95;;;;;;;;;;5097861;28;20063;-81
2021/09/06 13:11:31;;;;;;;5.90;3.90;;;;;;;;;;5116765;28;20502;-81
2021/09/06 13:13:57;;;;;;;6.72;3.92;;;;;;;;;;5116108;28;20047;-81
2021/09/06 13:16:24;;;;;;;8.02;3.88;;;;;;;;;;5114791;28;20031;-81
2021/09/06 13:18:50;;;;;;;5.43;3.63;;;33.90;50.00;;;;;;5101565;28;20035;-81
2021/09/06 13:21:16;;;;;;;5.28;4.10;;;36.80;43.80;;;;;;5081614;28;20042;-80
2021/09/06 13:23:42;;;;;;;5.30;4.00;;;36.40;43.50;;;;;;5077890;28;20035;-81
2021/09/06 13:26:15;;;;;;;6.90;3.97;;;36.60;44.50;;;;;;5111103;28;20094;-81
2021/09/06 13:28:44;;;;;;;5.57;4.40;;;36.60;43.50;;;;;;5105355;28;20119;-81
2021/09/06 13:31:12;;;;;;;5.60;3.63;;;;;;;;;;5094564;28;20020;-81
2021/09/06 13:33:38;;;;;;;4.53;4.13;;;;;;;;;;5087559;28;20472;-81
2021/09/06 13:36:05;;;;;;;5.90;3.70;;;;;;;;;;5077690;28;20077;-81
2021/09/06 13:38:31;;;;;;;4.45;4.05;;;;;;;;;;5082261;28;20075;-81
2021/09/06 13:40:58;;;;;;;5.57;4.30;;;;;;;;;;5087087;28;20337;-81
2021/09/06 13:43:24;;;;;;;6.28;3.65;;;;;;;;;;5096959;28;20023;-80
2021/09/06 13:45:50;;;;;;;5.47;4.20;;;37.00;44.00;;;;;;5092352;28;20391;-81
2021/09/06 13:48:16;;;;;;;5.03;3.75;;;38.40;40.70;;;;;;5081831;28;20028;-80
2021/09/06 13:50:41;;;;;;;5.28;3.90;;;40.50;41.40;;;;;;5116531;28;20038;-81
2021/09/06 13:53:07;;;;;;;5.47;3.90;;;;;;;;;;5074548;28;20023;-80
2021/09/06 13:55:33;;;;;;;6.43;3.80;;;;;;;;;;5104167;28;20049;-80
2021/09/06 13:57:59;;;;;;;4.28;3.80;;;;;;;;;;5073143;28;20028;-80
2021/09/06 14:00:25;;;;;;;4.80;3.83;;;;;;;;;;5078358;28;20035;-81
2021/09/06 14:02:51;;;;;;;6.30;3.75;;;;;;;;;;5082682;28;20122;-81
2021/09/06 14:05:19;;;;;;;4.63;3.55;;;;;;;;;;5117410;28;20058;-81
2021/09/06 14:07:47;;;;;;;6.47;3.83;;;;;;;;;;5114246;28;20042;-81
2021/09/06 14:10:13;;;;;;;5.68;3.78;;;;;;;;;;5067934;28;20032;-81
2021/09/06 14:12:38;;;;;;;4.40;3.88;;;39.30;39.70;;;;;;5099424;28;20026;-81
2021/09/06 14:15:05;;;;;;;4.57;3.95;;;40.80;38.60;;;;;;5084402;28;20024;-81
2021/09/06 14:17:30;;;;;;;4.88;3.72;;;40.30;38.50;;;;;;5103640;28;20388;-81
2021/09/06 14:19:56;;;;;;;4.40;3.97;;;40.50;38.20;;;;;;5087228;28;20020;-82
2021/09/06 14:22:22;;;;;;;5.72;3.90;;;40.20;38.10;;;;;;5078833;28;20032;-82
2021/09/06 14:24:47;;;;;;;4.70;3.70;;;40.60;37.90;;;;;;5091758;28;20024;-81
2021/09/06 14:27:13;;;;;;;5.20;3.90;;;40.30;38.30;;;;;;5046233;28;20028;-81
2021/09/06 14:29:39;;;;;;;5.10;4.10;;;40.00;38.20;;;;;;5083132;28;20034;-81